sensor_id;sensor_type;location;lat;lon;timestamp;P1;durP1;ratioP1;P2;durP2;ratioP2
65936;SDS011;52707;52.086;5.418;2023-09-30T00:01:22;15.32;;;4.70;;
65936;SDS011;52707;52.086;5.418;2023-09-30T00:03:49;11.43;;;4.13;;
65936;SDS011;52707;52.086;5.418;2023-09-30T00:06:15;13.55;;;3.95;;
65936;SDS011;52707;52.086;5.418;2023-09-30T00:08:42;11.18;;;4.50;;
65936;SDS011;52707;52.086;5.418;2023-09-30T00:11:09;19.35;;;5.28;;
65936;SDS011;52707;52.086;5.418;2023-09-30T00:13:36;15.85;;;4.00;;
65936;SDS011;52707;52.086;5.418;2023-09-30T00:16:02;14.88;;;4.57;;
65936;SDS011;52707;52.086;5.418;2023-09-30T00:18:28;17.83;;;4.30;;
65936;SDS011;52707;52.086;5.418;2023-09-30T00:20:55;12.10;;;4.28;;
65936;SDS011;52707;52.086;5.418;2023-09-30T00:23:21;16.85;;;4.60;;
65936;SDS011;52707;52.086;5.418;2023-09-30T00:25:48;14.68;;;5.18;;
65936;SDS011;52707;52.086;5.418;2023-09-30T00:28:16;14.90;;;5.20;;
65936;SDS011;52707;52.086;5.418;2023-09-30T00:30:42;12.40;;;4.97;;
65936;SDS011;52707;52.086;5.418;2023-09-30T00:33:12;18.30;;;4.97;;
65936;SDS011;52707;52.086;5.418;2023-09-30T00:35:38;15.85;;;4.78;;
65936;SDS011;52707;52.086;5.418;2023-09-30T00:38:05;15.52;;;4.88;;
65936;SDS011;52707;52.086;5.418;2023-09-30T00:40:31;14.32;;;5.65;;
65936;SDS011;52707;52.086;5.418;2023-09-30T00:42:57;20.33;;;6.13;;
65936;SDS011;52707;52.086;5.418;2023-09-30T00:45:24;17.33;;;6.05;;
65936;SDS011;52707;52.086;5.418;2023-09-30T00:47:50;18.10;;;5.70;;
65936;SDS011;52707;52.086;5.418;2023-09-30T00:50:19;20.08;;;6.03;;
65936;SDS011;52707;52.086;5.418;2023-09-30T00:52:45;16.38;;;5.40;;
65936;SDS011;52707;52.086;5.418;2023-09-30T00:55:12;18.55;;;5.95;;
65936;SDS011;52707;52.086;5.418;2023-09-30T00:57:38;20.27;;;6.10;;
65936;SDS011;52707;52.086;5.418;2023-09-30T01:00:05;16.50;;;5.97;;
65936;SDS011;52707;52.086;5.418;2023-09-30T01:02:32;21.70;;;6.82;;
65936;SDS011;52707;52.086;5.418;2023-09-30T01:05:01;22.42;;;6.78;;
65936;SDS011;52707;52.086;5.418;2023-09-30T01:07:27;15.38;;;6.57;;
65936;SDS011;52707;52.086;5.418;2023-09-30T01:09:53;18.70;;;6.47;;
65936;SDS011;52707;52.086;5.418;2023-09-30T01:12:20;17.50;;;5.57;;
65936;SDS011;52707;52.086;5.418;2023-09-30T01:14:46;16.08;;;5.78;;
65936;SDS011;52707;52.086;5.418;2023-09-30T01:17:13;15.95;;;6.10;;
65936;SDS011;52707;52.086;5.418;2023-09-30T01:19:40;17.42;;;5.40;;
65936;SDS011;52707;52.086;5.418;2023-09-30T01:22:08;23.65;;;6.85;;
65936;SDS011;52707;52.086;5.418;2023-09-30T01:24:39;17.27;;;6.47;;
65936;SDS011;52707;52.086;5.418;2023-09-30T01:29:33;19.88;;;7.47;;
65936;SDS011;52707;52.086;5.418;2023-09-30T01:31:59;21.63;;;6.60;;
65936;SDS011;52707;52.086;5.418;2023-09-30T01:34:26;13.77;;;6.13;;
65936;SDS011;52707;52.086;5.418;2023-09-30T01:36:53;17.05;;;7.50;;
65936;SDS011;52707;52.086;5.418;2023-09-30T01:39:20;16.42;;;6.40;;
65936;SDS011;52707;52.086;5.418;2023-09-30T01:41:46;20.15;;;6.80;;
65936;SDS011;52707;52.086;5.418;2023-09-30T01:44:12;22.40;;;6.97;;
65936;SDS011;52707;52.086;5.418;2023-09-30T01:46:39;19.00;;;7.28;;
65936;SDS011;52707;52.086;5.418;2023-09-30T01:49:05;16.80;;;6.72;;
65936;SDS011;52707;52.086;5.418;2023-09-30T01:51:32;21.85;;;7.55;;
65936;SDS011;52707;52.086;5.418;2023-09-30T01:53:58;17.85;;;7.32;;
65936;SDS011;52707;52.086;5.418;2023-09-30T01:56:25;21.10;;;7.40;;
65936;SDS011;52707;52.086;5.418;2023-09-30T01:58:51;18.40;;;7.25;;
65936;SDS011;52707;52.086;5.418;2023-09-30T02:01:18;19.40;;;7.47;;
65936;SDS011;52707;52.086;5.418;2023-09-30T02:03:44;19.27;;;6.78;;
65936;SDS011;52707;52.086;5.418;2023-09-30T02:06:11;15.32;;;7.68;;
65936;SDS011;52707;52.086;5.418;2023-09-30T02:08:37;17.75;;;7.40;;
65936;SDS011;52707;52.086;5.418;2023-09-30T02:11:03;19.58;;;7.47;;
65936;SDS011;52707;52.086;5.418;2023-09-30T02:13:32;12.75;;;6.93;;
65936;SDS011;52707;52.086;5.418;2023-09-30T02:15:59;19.85;;;7.18;;
65936;SDS011;52707;52.086;5.418;2023-09-30T02:18:26;19.27;;;7.68;;
65936;SDS011;52707;52.086;5.418;2023-09-30T02:20:52;17.65;;;7.32;;
65936;SDS011;52707;52.086;5.418;2023-09-30T02:23:19;25.23;;;7.43;;
65936;SDS011;52707;52.086;5.418;2023-09-30T02:25:47;18.50;;;7.13;;
65936;SDS011;52707;52.086;5.418;2023-09-30T02:28:13;18.40;;;6.85;;
65936;SDS011;52707;52.086;5.418;2023-09-30T02:30:40;16.42;;;7.22;;
65936;SDS011;52707;52.086;5.418;2023-09-30T02:33:06;14.88;;;6.97;;
65936;SDS011;52707;52.086;5.418;2023-09-30T02:35:33;17.23;;;6.72;;
65936;SDS011;52707;52.086;5.418;2023-09-30T02:37:59;19.48;;;7.05;;
65936;SDS011;52707;52.086;5.418;2023-09-30T02:40:26;19.35;;;7.63;;
65936;SDS011;52707;52.086;5.418;2023-09-30T02:42:52;14.70;;;7.18;;
65936;SDS011;52707;52.086;5.418;2023-09-30T02:45:19;17.05;;;7.10;;
65936;SDS011;52707;52.086;5.418;2023-09-30T02:47:46;14.23;;;6.50;;
65936;SDS011;52707;52.086;5.418;2023-09-30T02:50:13;15.65;;;7.10;;
65936;SDS011;52707;52.086;5.418;2023-09-30T02:52:42;18.65;;;7.50;;
65936;SDS011;52707;52.086;5.418;2023-09-30T02:55:09;16.30;;;7.57;;
65936;SDS011;52707;52.086;5.418;2023-09-30T02:57:35;17.55;;;7.80;;
65936;SDS011;52707;52.086;5.418;2023-09-30T03:00:03;16.83;;;8.10;;
65936;SDS011;52707;52.086;5.418;2023-09-30T03:02:38;14.80;;;7.55;;
65936;SDS011;52707;52.086;5.418;2023-09-30T03:05:05;15.20;;;8.63;;
65936;SDS011;52707;52.086;5.418;2023-09-30T03:07:33;17.73;;;7.82;;
65936;SDS011;52707;52.086;5.418;2023-09-30T03:09:59;17.42;;;8.20;;
65936;SDS011;52707;52.086;5.418;2023-09-30T03:12:30;17.23;;;8.55;;
65936;SDS011;52707;52.086;5.418;2023-09-30T03:14:58;15.00;;;8.13;;
65936;SDS011;52707;52.086;5.418;2023-09-30T03:17:24;14.60;;;8.55;;
65936;SDS011;52707;52.086;5.418;2023-09-30T03:19:52;18.42;;;9.30;;
65936;SDS011;52707;52.086;5.418;2023-09-30T03:22:18;20.42;;;8.38;;
65936;SDS011;52707;52.086;5.418;2023-09-30T03:24:45;26.17;;;10.02;;
65936;SDS011;52707;52.086;5.418;2023-09-30T03:27:11;18.48;;;8.55;;
65936;SDS011;52707;52.086;5.418;2023-09-30T03:29:38;19.27;;;9.02;;
65936;SDS011;52707;52.086;5.418;2023-09-30T03:32:05;27.20;;;9.82;;
65936;SDS011;52707;52.086;5.418;2023-09-30T03:34:31;22.85;;;9.38;;
65936;SDS011;52707;52.086;5.418;2023-09-30T03:36:57;15.32;;;8.95;;
65936;SDS011;52707;52.086;5.418;2023-09-30T03:39:25;20.10;;;9.55;;
65936;SDS011;52707;52.086;5.418;2023-09-30T03:41:56;20.88;;;9.93;;
65936;SDS011;52707;52.086;5.418;2023-09-30T03:44:25;17.33;;;9.63;;
65936;SDS011;52707;52.086;5.418;2023-09-30T03:46:52;20.73;;;9.70;;
65936;SDS011;52707;52.086;5.418;2023-09-30T03:49:19;22.52;;;9.35;;
65936;SDS011;52707;52.086;5.418;2023-09-30T03:51:48;20.10;;;10.15;;
65936;SDS011;52707;52.086;5.418;2023-09-30T03:54:17;25.40;;;10.88;;
65936;SDS011;52707;52.086;5.418;2023-09-30T03:56:44;22.45;;;10.23;;
65936;SDS011;52707;52.086;5.418;2023-09-30T03:59:11;20.60;;;9.27;;
65936;SDS011;52707;52.086;5.418;2023-09-30T04:01:38;21.42;;;10.75;;
65936;SDS011;52707;52.086;5.418;2023-09-30T04:04:08;20.20;;;9.77;;
65936;SDS011;52707;52.086;5.418;2023-09-30T04:06:36;22.45;;;11.65;;
65936;SDS011;52707;52.086;5.418;2023-09-30T04:09:05;22.50;;;11.05;;
65936;SDS011;52707;52.086;5.418;2023-09-30T04:11:36;18.77;;;11.43;;
65936;SDS011;52707;52.086;5.418;2023-09-30T04:14:06;22.45;;;11.30;;
65936;SDS011;52707;52.086;5.418;2023-09-30T04:16:33;23.23;;;11.50;;
65936;SDS011;52707;52.086;5.418;2023-09-30T04:19:00;19.30;;;11.60;;
65936;SDS011;52707;52.086;5.418;2023-09-30T04:21:27;30.33;;;11.80;;
65936;SDS011;52707;52.086;5.418;2023-09-30T04:23:56;18.45;;;11.57;;
65936;SDS011;52707;52.086;5.418;2023-09-30T04:26:24;23.23;;;11.13;;
65936;SDS011;52707;52.086;5.418;2023-09-30T04:28:51;25.73;;;11.55;;
65936;SDS011;52707;52.086;5.418;2023-09-30T04:31:18;18.92;;;12.07;;
65936;SDS011;52707;52.086;5.418;2023-09-30T04:33:44;24.05;;;11.57;;
65936;SDS011;52707;52.086;5.418;2023-09-30T04:36:11;23.35;;;12.40;;
65936;SDS011;52707;52.086;5.418;2023-09-30T04:38:40;27.15;;;13.15;;
65936;SDS011;52707;52.086;5.418;2023-09-30T04:41:06;20.00;;;12.48;;
65936;SDS011;52707;52.086;5.418;2023-09-30T04:43:35;25.58;;;11.90;;
65936;SDS011;52707;52.086;5.418;2023-09-30T04:46:05;21.55;;;11.70;;
65936;SDS011;52707;52.086;5.418;2023-09-30T04:48:33;31.98;;;12.20;;
65936;SDS011;52707;52.086;5.418;2023-09-30T04:51:00;24.50;;;12.48;;
65936;SDS011;52707;52.086;5.418;2023-09-30T04:53:26;26.42;;;12.45;;
65936;SDS011;52707;52.086;5.418;2023-09-30T04:55:53;30.15;;;13.13;;
65936;SDS011;52707;52.086;5.418;2023-09-30T04:58:19;24.83;;;12.43;;
65936;SDS011;52707;52.086;5.418;2023-09-30T05:00:45;24.58;;;12.48;;
65936;SDS011;52707;52.086;5.418;2023-09-30T05:03:12;25.33;;;12.73;;
65936;SDS011;52707;52.086;5.418;2023-09-30T05:05:38;22.60;;;12.80;;
65936;SDS011;52707;52.086;5.418;2023-09-30T05:08:05;22.77;;;11.93;;
65936;SDS011;52707;52.086;5.418;2023-09-30T05:10:32;24.25;;;13.57;;
65936;SDS011;52707;52.086;5.418;2023-09-30T05:12:59;24.08;;;12.98;;
65936;SDS011;52707;52.086;5.418;2023-09-30T05:15:26;20.52;;;12.23;;
65936;SDS011;52707;52.086;5.418;2023-09-30T05:17:52;22.35;;;13.27;;
65936;SDS011;52707;52.086;5.418;2023-09-30T05:20:19;28.23;;;12.90;;
65936;SDS011;52707;52.086;5.418;2023-09-30T05:22:46;26.50;;;13.40;;
65936;SDS011;52707;52.086;5.418;2023-09-30T05:25:16;25.10;;;13.60;;
65936;SDS011;52707;52.086;5.418;2023-09-30T05:30:09;23.40;;;13.35;;
65936;SDS011;52707;52.086;5.418;2023-09-30T05:32:37;19.23;;;12.65;;
65936;SDS011;52707;52.086;5.418;2023-09-30T05:35:05;25.13;;;13.98;;
65936;SDS011;52707;52.086;5.418;2023-09-30T05:37:41;25.92;;;12.77;;
65936;SDS011;52707;52.086;5.418;2023-09-30T05:40:08;30.17;;;14.95;;
65936;SDS011;52707;52.086;5.418;2023-09-30T05:42:46;21.23;;;12.35;;
65936;SDS011;52707;52.086;5.418;2023-09-30T05:45:12;28.42;;;14.20;;
65936;SDS011;52707;52.086;5.418;2023-09-30T05:47:39;28.92;;;14.00;;
65936;SDS011;52707;52.086;5.418;2023-09-30T05:50:06;29.58;;;13.70;;
65936;SDS011;52707;52.086;5.418;2023-09-30T05:52:33;23.40;;;13.75;;
65936;SDS011;52707;52.086;5.418;2023-09-30T05:55:01;23.13;;;13.82;;
65936;SDS011;52707;52.086;5.418;2023-09-30T05:57:28;30.25;;;14.60;;
65936;SDS011;52707;52.086;5.418;2023-09-30T05:59:54;26.70;;;14.85;;
65936;SDS011;52707;52.086;5.418;2023-09-30T06:02:21;25.20;;;14.07;;
65936;SDS011;52707;52.086;5.418;2023-09-30T06:04:47;28.15;;;14.60;;
65936;SDS011;52707;52.086;5.418;2023-09-30T06:07:13;34.38;;;15.35;;
65936;SDS011;52707;52.086;5.418;2023-09-30T06:09:40;28.95;;;15.15;;
65936;SDS011;52707;52.086;5.418;2023-09-30T06:12:06;34.90;;;15.93;;
65936;SDS011;52707;52.086;5.418;2023-09-30T06:14:33;27.08;;;14.55;;
65936;SDS011;52707;52.086;5.418;2023-09-30T06:17:00;28.45;;;14.15;;
65936;SDS011;52707;52.086;5.418;2023-09-30T06:19:26;28.83;;;15.07;;
65936;SDS011;52707;52.086;5.418;2023-09-30T06:21:53;33.90;;;14.77;;
65936;SDS011;52707;52.086;5.418;2023-09-30T06:24:19;28.90;;;15.32;;
65936;SDS011;52707;52.086;5.418;2023-09-30T06:26:48;24.08;;;14.27;;
65936;SDS011;52707;52.086;5.418;2023-09-30T06:29:15;33.22;;;14.38;;
65936;SDS011;52707;52.086;5.418;2023-09-30T06:31:41;27.58;;;14.75;;
65936;SDS011;52707;52.086;5.418;2023-09-30T06:34:07;34.47;;;15.48;;
65936;SDS011;52707;52.086;5.418;2023-09-30T06:36:37;23.58;;;14.27;;
65936;SDS011;52707;52.086;5.418;2023-09-30T06:39:04;34.58;;;15.57;;
65936;SDS011;52707;52.086;5.418;2023-09-30T06:41:32;26.42;;;14.65;;
65936;SDS011;52707;52.086;5.418;2023-09-30T06:43:59;31.27;;;15.02;;
65936;SDS011;52707;52.086;5.418;2023-09-30T06:46:26;28.58;;;14.40;;
65936;SDS011;52707;52.086;5.418;2023-09-30T06:48:52;31.35;;;14.57;;
65936;SDS011;52707;52.086;5.418;2023-09-30T06:51:19;34.53;;;14.85;;
65936;SDS011;52707;52.086;5.418;2023-09-30T06:53:45;30.88;;;15.95;;
65936;SDS011;52707;52.086;5.418;2023-09-30T06:56:12;29.23;;;16.08;;
65936;SDS011;52707;52.086;5.418;2023-09-30T06:58:41;24.25;;;14.63;;
65936;SDS011;52707;52.086;5.418;2023-09-30T07:01:07;34.22;;;17.10;;
65936;SDS011;52707;52.086;5.418;2023-09-30T07:03:34;26.08;;;15.02;;
65936;SDS011;52707;52.086;5.418;2023-09-30T07:06:00;30.73;;;16.13;;
65936;SDS011;52707;52.086;5.418;2023-09-30T07:08:29;35.67;;;15.60;;
65936;SDS011;52707;52.086;5.418;2023-09-30T07:10:56;33.65;;;15.82;;
65936;SDS011;52707;52.086;5.418;2023-09-30T07:13:22;28.25;;;16.00;;
65936;SDS011;52707;52.086;5.418;2023-09-30T07:15:49;28.55;;;14.52;;
65936;SDS011;52707;52.086;5.418;2023-09-30T07:18:17;33.47;;;14.85;;
65936;SDS011;52707;52.086;5.418;2023-09-30T07:20:43;33.80;;;16.63;;
65936;SDS011;52707;52.086;5.418;2023-09-30T07:23:10;28.98;;;15.43;;
65936;SDS011;52707;52.086;5.418;2023-09-30T07:25:45;30.42;;;14.75;;
65936;SDS011;52707;52.086;5.418;2023-09-30T07:28:12;31.52;;;15.20;;
65936;SDS011;52707;52.086;5.418;2023-09-30T07:30:39;26.25;;;15.55;;
65936;SDS011;52707;52.086;5.418;2023-09-30T07:33:06;31.40;;;15.30;;
65936;SDS011;52707;52.086;5.418;2023-09-30T07:35:33;37.33;;;15.20;;
65936;SDS011;52707;52.086;5.418;2023-09-30T07:38:00;29.95;;;15.13;;
65936;SDS011;52707;52.086;5.418;2023-09-30T07:40:26;29.45;;;15.02;;
65936;SDS011;52707;52.086;5.418;2023-09-30T07:42:54;31.98;;;15.45;;
65936;SDS011;52707;52.086;5.418;2023-09-30T07:45:20;27.95;;;14.40;;
65936;SDS011;52707;52.086;5.418;2023-09-30T07:47:47;27.17;;;14.88;;
65936;SDS011;52707;52.086;5.418;2023-09-30T07:50:14;35.75;;;15.07;;
65936;SDS011;52707;52.086;5.418;2023-09-30T07:52:40;30.23;;;15.40;;
65936;SDS011;52707;52.086;5.418;2023-09-30T07:55:08;28.55;;;14.80;;
65936;SDS011;52707;52.086;5.418;2023-09-30T07:57:35;31.15;;;15.10;;
65936;SDS011;52707;52.086;5.418;2023-09-30T08:00:02;24.65;;;14.05;;
65936;SDS011;52707;52.086;5.418;2023-09-30T08:02:34;36.38;;;14.63;;
65936;SDS011;52707;52.086;5.418;2023-09-30T08:05:01;27.45;;;13.82;;
65936;SDS011;52707;52.086;5.418;2023-09-30T08:07:27;24.63;;;13.25;;
65936;SDS011;52707;52.086;5.418;2023-09-30T08:09:54;30.95;;;13.13;;
65936;SDS011;52707;52.086;5.418;2023-09-30T08:12:20;36.08;;;14.43;;
65936;SDS011;52707;52.086;5.418;2023-09-30T08:14:47;28.83;;;13.93;;
65936;SDS011;52707;52.086;5.418;2023-09-30T08:17:14;28.27;;;12.90;;
65936;SDS011;52707;52.086;5.418;2023-09-30T08:19:41;25.48;;;13.23;;
65936;SDS011;52707;52.086;5.418;2023-09-30T08:22:07;27.90;;;13.43;;
65936;SDS011;52707;52.086;5.418;2023-09-30T08:24:35;23.02;;;11.95;;
65936;SDS011;52707;52.086;5.418;2023-09-30T08:27:01;28.73;;;11.50;;
65936;SDS011;52707;52.086;5.418;2023-09-30T08:29:28;27.10;;;12.68;;
65936;SDS011;52707;52.086;5.418;2023-09-30T08:31:54;34.10;;;13.27;;
65936;SDS011;52707;52.086;5.418;2023-09-30T08:34:21;20.70;;;12.63;;
65936;SDS011;52707;52.086;5.418;2023-09-30T08:36:49;23.15;;;11.38;;
65936;SDS011;52707;52.086;5.418;2023-09-30T08:39:15;27.00;;;10.73;;
65936;SDS011;52707;52.086;5.418;2023-09-30T08:41:42;28.77;;;12.25;;
65936;SDS011;52707;52.086;5.418;2023-09-30T08:44:10;26.08;;;12.35;;
65936;SDS011;52707;52.086;5.418;2023-09-30T08:46:37;24.08;;;11.73;;
65936;SDS011;52707;52.086;5.418;2023-09-30T08:49:04;19.90;;;10.35;;
65936;SDS011;52707;52.086;5.418;2023-09-30T08:51:32;30.23;;;10.55;;
65936;SDS011;52707;52.086;5.418;2023-09-30T08:53:59;25.05;;;11.10;;
65936;SDS011;52707;52.086;5.418;2023-09-30T08:56:29;21.55;;;11.57;;
65936;SDS011;52707;52.086;5.418;2023-09-30T08:58:58;25.50;;;11.17;;
65936;SDS011;52707;52.086;5.418;2023-09-30T09:01:29;21.70;;;11.93;;
65936;SDS011;52707;52.086;5.418;2023-09-30T09:06:22;20.88;;;10.05;;
65936;SDS011;52707;52.086;5.418;2023-09-30T09:08:50;21.05;;;9.93;;
65936;SDS011;52707;52.086;5.418;2023-09-30T09:11:16;22.38;;;11.45;;
65936;SDS011;52707;52.086;5.418;2023-09-30T09:13:50;22.48;;;10.63;;
65936;SDS011;52707;52.086;5.418;2023-09-30T09:16:17;25.05;;;12.27;;
65936;SDS011;52707;52.086;5.418;2023-09-30T09:18:45;22.55;;;10.70;;
65936;SDS011;52707;52.086;5.418;2023-09-30T09:21:17;26.75;;;10.35;;
65936;SDS011;52707;52.086;5.418;2023-09-30T09:23:44;26.98;;;9.45;;
65936;SDS011;52707;52.086;5.418;2023-09-30T09:26:32;24.25;;;9.48;;
65936;SDS011;52707;52.086;5.418;2023-09-30T09:29:01;22.02;;;9.32;;
65936;SDS011;52707;52.086;5.418;2023-09-30T09:31:31;22.23;;;9.50;;
65936;SDS011;52707;52.086;5.418;2023-09-30T09:33:58;23.60;;;10.00;;
65936;SDS011;52707;52.086;5.418;2023-09-30T09:36:41;21.13;;;9.30;;
65936;SDS011;52707;52.086;5.418;2023-09-30T09:39:08;26.10;;;8.93;;
65936;SDS011;52707;52.086;5.418;2023-09-30T09:41:48;29.50;;;9.07;;
65936;SDS011;52707;52.086;5.418;2023-09-30T09:44:15;21.15;;;8.45;;
65936;SDS011;52707;52.086;5.418;2023-09-30T09:46:42;21.88;;;8.77;;
65936;SDS011;52707;52.086;5.418;2023-09-30T09:49:10;20.77;;;9.00;;
65936;SDS011;52707;52.086;5.418;2023-09-30T09:51:37;14.50;;;8.13;;
65936;SDS011;52707;52.086;5.418;2023-09-30T09:54:04;19.75;;;8.27;;
65936;SDS011;52707;52.086;5.418;2023-09-30T09:56:33;20.63;;;7.85;;
65936;SDS011;52707;52.086;5.418;2023-09-30T09:59:01;17.15;;;7.35;;
65936;SDS011;52707;52.086;5.418;2023-09-30T10:01:30;25.77;;;7.55;;
65936;SDS011;52707;52.086;5.418;2023-09-30T10:03:56;17.52;;;5.80;;
65936;SDS011;52707;52.086;5.418;2023-09-30T10:06:23;17.55;;;6.15;;
65936;SDS011;52707;52.086;5.418;2023-09-30T10:08:50;17.40;;;6.38;;
65936;SDS011;52707;52.086;5.418;2023-09-30T10:11:18;14.10;;;6.13;;
65936;SDS011;52707;52.086;5.418;2023-09-30T10:13:54;11.93;;;4.93;;
65936;SDS011;52707;52.086;5.418;2023-09-30T10:19:15;16.65;;;4.10;;
65936;SDS011;52707;52.086;5.418;2023-09-30T10:24:30;11.90;;;5.00;;
65936;SDS011;52707;52.086;5.418;2023-09-30T10:29:42;18.05;;;5.63;;
65936;SDS011;52707;52.086;5.418;2023-09-30T10:32:08;14.38;;;6.18;;
65936;SDS011;52707;52.086;5.418;2023-09-30T10:34:35;19.25;;;5.00;;
65936;SDS011;52707;52.086;5.418;2023-09-30T10:37:23;18.65;;;5.30;;
65936;SDS011;52707;52.086;5.418;2023-09-30T10:39:57;15.30;;;4.95;;
65936;SDS011;52707;52.086;5.418;2023-09-30T10:42:44;14.07;;;4.63;;
65936;SDS011;52707;52.086;5.418;2023-09-30T10:48:31;13.73;;;4.50;;
65936;SDS011;52707;52.086;5.418;2023-09-30T10:50:53;8.75;;;4.05;;
65936;SDS011;52707;52.086;5.418;2023-09-30T10:53:23;12.45;;;4.40;;
65936;SDS011;52707;52.086;5.418;2023-09-30T10:55:56;16.83;;;4.70;;
65936;SDS011;52707;52.086;5.418;2023-09-30T10:58:39;14.07;;;4.22;;
65936;SDS011;52707;52.086;5.418;2023-09-30T11:01:05;16.92;;;4.43;;
65936;SDS011;52707;52.086;5.418;2023-09-30T11:03:32;14.95;;;4.68;;
65936;SDS011;52707;52.086;5.418;2023-09-30T11:05:59;9.52;;;3.72;;
65936;SDS011;52707;52.086;5.418;2023-09-30T11:08:28;14.93;;;3.67;;
65936;SDS011;52707;52.086;5.418;2023-09-30T11:10:58;10.82;;;3.92;;
65936;SDS011;52707;52.086;5.418;2023-09-30T11:13:33;14.75;;;4.30;;
65936;SDS011;52707;52.086;5.418;2023-09-30T11:16:01;11.70;;;3.88;;
65936;SDS011;52707;52.086;5.418;2023-09-30T11:18:28;15.68;;;4.60;;
65936;SDS011;52707;52.086;5.418;2023-09-30T11:21:05;12.32;;;4.88;;
65936;SDS011;52707;52.086;5.418;2023-09-30T11:23:31;14.75;;;4.75;;
65936;SDS011;52707;52.086;5.418;2023-09-30T11:25:58;19.02;;;4.80;;
65936;SDS011;52707;52.086;5.418;2023-09-30T11:28:25;13.45;;;3.97;;
65936;SDS011;52707;52.086;5.418;2023-09-30T11:30:59;14.35;;;3.58;;
65936;SDS011;52707;52.086;5.418;2023-09-30T11:33:26;20.27;;;4.10;;
65936;SDS011;52707;52.086;5.418;2023-09-30T11:36:02;14.93;;;4.57;;
65936;SDS011;52707;52.086;5.418;2023-09-30T11:38:30;8.90;;;3.55;;
65936;SDS011;52707;52.086;5.418;2023-09-30T11:40:58;15.00;;;3.42;;
65936;SDS011;52707;52.086;5.418;2023-09-30T11:43:24;9.45;;;2.92;;
65936;SDS011;52707;52.086;5.418;2023-09-30T11:45:51;12.02;;;3.60;;
65936;SDS011;52707;52.086;5.418;2023-09-30T11:48:18;11.20;;;3.97;;
65936;SDS011;52707;52.086;5.418;2023-09-30T11:50:48;12.38;;;4.07;;
65936;SDS011;52707;52.086;5.418;2023-09-30T11:53:16;10.25;;;3.03;;
65936;SDS011;52707;52.086;5.418;2023-09-30T11:55:44;13.77;;;3.53;;
65936;SDS011;52707;52.086;5.418;2023-09-30T11:58:10;13.40;;;3.40;;
65936;SDS011;52707;52.086;5.418;2023-09-30T12:00:40;15.68;;;3.70;;
65936;SDS011;52707;52.086;5.418;2023-09-30T12:03:07;11.07;;;3.65;;
65936;SDS011;52707;52.086;5.418;2023-09-30T12:05:33;13.05;;;4.22;;
65936;SDS011;52707;52.086;5.418;2023-09-30T12:08:00;14.57;;;4.40;;
65936;SDS011;52707;52.086;5.418;2023-09-30T12:10:26;12.43;;;4.38;;
65936;SDS011;52707;52.086;5.418;2023-09-30T12:12:52;11.15;;;4.78;;
65936;SDS011;52707;52.086;5.418;2023-09-30T12:15:19;12.32;;;4.32;;
65936;SDS011;52707;52.086;5.418;2023-09-30T12:17:46;9.02;;;3.78;;
65936;SDS011;52707;52.086;5.418;2023-09-30T12:20:13;13.52;;;4.43;;
65936;SDS011;52707;52.086;5.418;2023-09-30T12:22:41;9.43;;;3.72;;
65936;SDS011;52707;52.086;5.418;2023-09-30T12:25:08;10.95;;;3.88;;
65936;SDS011;52707;52.086;5.418;2023-09-30T12:27:34;9.98;;;3.25;;
65936;SDS011;52707;52.086;5.418;2023-09-30T12:30:01;10.07;;;3.92;;
65936;SDS011;52707;52.086;5.418;2023-09-30T12:32:29;14.45;;;3.20;;
65936;SDS011;52707;52.086;5.418;2023-09-30T12:34:56;18.15;;;6.32;;
65936;SDS011;52707;52.086;5.418;2023-09-30T12:37:22;13.85;;;7.90;;
65936;SDS011;52707;52.086;5.418;2023-09-30T12:39:49;11.25;;;3.30;;
65936;SDS011;52707;52.086;5.418;2023-09-30T12:42:15;16.42;;;9.93;;
65936;SDS011;52707;52.086;5.418;2023-09-30T12:44:42;25.98;;;16.60;;
65936;SDS011;52707;52.086;5.418;2023-09-30T12:47:08;24.08;;;16.52;;
65936;SDS011;52707;52.086;5.418;2023-09-30T12:49:34;11.95;;;7.45;;
65936;SDS011;52707;52.086;5.418;2023-09-30T12:52:01;25.40;;;20.55;;
65936;SDS011;52707;52.086;5.418;2023-09-30T12:54:28;29.00;;;22.52;;
65936;SDS011;52707;52.086;5.418;2023-09-30T12:56:54;26.67;;;19.50;;
65936;SDS011;52707;52.086;5.418;2023-09-30T12:59:20;29.23;;;22.98;;
65936;SDS011;52707;52.086;5.418;2023-09-30T13:01:50;19.98;;;13.23;;
65936;SDS011;52707;52.086;5.418;2023-09-30T13:04:16;26.13;;;19.63;;
65936;SDS011;52707;52.086;5.418;2023-09-30T13:06:44;26.23;;;18.40;;
65936;SDS011;52707;52.086;5.418;2023-09-30T13:09:11;43.85;;;34.15;;
65936;SDS011;52707;52.086;5.418;2023-09-30T13:11:38;24.55;;;16.83;;
65936;SDS011;52707;52.086;5.418;2023-09-30T13:14:04;26.20;;;20.88;;
65936;SDS011;52707;52.086;5.418;2023-09-30T13:16:30;29.23;;;23.70;;
65936;SDS011;52707;52.086;5.418;2023-09-30T13:18:57;26.00;;;19.42;;
65936;SDS011;52707;52.086;5.418;2023-09-30T13:21:24;23.85;;;17.02;;
65936;SDS011;52707;52.086;5.418;2023-09-30T13:23:50;32.00;;;22.27;;
65936;SDS011;52707;52.086;5.418;2023-09-30T13:26:17;16.58;;;12.07;;
65936;SDS011;52707;52.086;5.418;2023-09-30T13:28:43;26.00;;;17.30;;
65936;SDS011;52707;52.086;5.418;2023-09-30T13:31:09;18.90;;;11.48;;
65936;SDS011;52707;52.086;5.418;2023-09-30T13:33:36;30.73;;;18.73;;
65936;SDS011;52707;52.086;5.418;2023-09-30T13:36:02;31.50;;;20.63;;
65936;SDS011;52707;52.086;5.418;2023-09-30T13:38:29;38.78;;;20.30;;
65936;SDS011;52707;52.086;5.418;2023-09-30T13:40:55;34.35;;;22.13;;
65936;SDS011;52707;52.086;5.418;2023-09-30T13:43:22;33.00;;;20.80;;
65936;SDS011;52707;52.086;5.418;2023-09-30T13:45:48;27.83;;;21.08;;
65936;SDS011;52707;52.086;5.418;2023-09-30T13:48:15;40.13;;;29.13;;
65936;SDS011;52707;52.086;5.418;2023-09-30T13:50:41;74.30;;;57.40;;
65936;SDS011;52707;52.086;5.418;2023-09-30T13:53:07;62.22;;;46.83;;
65936;SDS011;52707;52.086;5.418;2023-09-30T13:55:37;85.93;;;62.08;;
65936;SDS011;52707;52.086;5.418;2023-09-30T13:58:04;91.97;;;66.70;;
65936;SDS011;52707;52.086;5.418;2023-09-30T14:00:30;76.15;;;56.85;;
65936;SDS011;52707;52.086;5.418;2023-09-30T14:02:59;89.00;;;64.53;;
65936;SDS011;52707;52.086;5.418;2023-09-30T14:05:25;70.13;;;48.93;;
65936;SDS011;52707;52.086;5.418;2023-09-30T14:07:52;92.55;;;66.45;;
65936;SDS011;52707;52.086;5.418;2023-09-30T14:10:18;85.07;;;56.08;;
65936;SDS011;52707;52.086;5.418;2023-09-30T14:12:45;130.88;;;87.63;;
65936;SDS011;52707;52.086;5.418;2023-09-30T14:15:11;66.65;;;43.03;;
65936;SDS011;52707;52.086;5.418;2023-09-30T14:17:39;77.53;;;46.80;;
65936;SDS011;52707;52.086;5.418;2023-09-30T14:20:05;87.22;;;54.97;;
65936;SDS011;52707;52.086;5.418;2023-09-30T14:22:32;51.10;;;33.17;;
65936;SDS011;52707;52.086;5.418;2023-09-30T14:24:59;68.57;;;50.42;;
65936;SDS011;52707;52.086;5.418;2023-09-30T14:27:25;82.55;;;63.53;;
65936;SDS011;52707;52.086;5.418;2023-09-30T14:29:52;73.50;;;56.20;;
65936;SDS011;52707;52.086;5.418;2023-09-30T14:32:19;113.00;;;63.13;;
65936;SDS011;52707;52.086;5.418;2023-09-30T14:34:45;114.05;;;76.72;;
65936;SDS011;52707;52.086;5.418;2023-09-30T14:37:11;138.98;;;98.30;;
65936;SDS011;52707;52.086;5.418;2023-09-30T14:39:39;110.00;;;76.82;;
65936;SDS011;52707;52.086;5.418;2023-09-30T14:42:06;128.20;;;86.45;;
65936;SDS011;52707;52.086;5.418;2023-09-30T14:44:32;162.70;;;106.50;;
65936;SDS011;52707;52.086;5.418;2023-09-30T14:46:59;166.73;;;96.30;;
65936;SDS011;52707;52.086;5.418;2023-09-30T14:49:26;120.05;;;73.43;;